Northern Sonoma County Latest

25 Stations

15 Minute Data | America/Los_Angeles
as of 5/7/26 2:26 PM PDT
Station Date Time Temp (°F) RH (%) Dew Pt (°F) Wind Spd (mph) Wind Dir (°) Wind Gust (mph) Latest Rain (In) Daily Rain (In) Daily Max Temp (°F) Daily Min Temp (°F)
Bavarian Lion EFW 5/7/26 1415 73.3   2.1 - - - - - 0.00 0.00 74.1   2.7 50.0   4.2
Rockpile Lower (Cooley) 5/7/26 1400 77.4   2.1 52   6 58.2   5.4 3.1   0.0 SE | 128 8.6   0.8 0.00 0.00 78.5   2.5 48.1   4.3
Rockpile Upper (Cooley) 5/7/26 1415 73.6   0.6 59   9 58.5   5.1 6.9   2.1 SSE | 160 12.7   0.4 0.00 0.00 74.2   0.2 44.8   3.8
Lower Dry Creek Valley 5/7/26 1415 72.6   4.5 59   13 57.5   2.9 5.8   2.8 SSE | 150 10.6   3.9 0.00 0.00 73.1   5.6 51.8   3.2
Geyserville-South (Nervo Station) 5/7/26 1415 71.8   2.8 - - 4.8   0.6 SE | 133 8.8   1.3 0.00 0.00 72.4   3.0 51.4   2.7
Franz Valley (Stornetta) 5/7/26 1415 72.9   1.1 59   1 57.6   1.4 2.9   0.5 WSW | 252 6.8   1.9 0.00 0.00 73.5   1.2 48.5   4.8
Geyserville (Ranch 3) 5/7/26 1415 73.8   2.5 56   6 57.0   0.8 5.9   1.8 ESE | 108 11.3   3.5 0.00 0.00 74.1   2.9 52.8   2.6
Geyserville-North (Hoffman) 5/7/26 1415 75.1   2.5 58   6 59.4   1.0 5.8   3.3 ESE | 122 9.6   3.2 0.00 0.00 75.9   3.6 52.9   2.8
Knights Valley (Bavarian Lion) 5/7/26 1415 72.5   1.5 60   6 57.7   1.6 4.5   1.1 W | 268 9.6   1.8 0.00 0.00 73.4   1.3 49.1   4.3
HWY 128/Chalk Hill Rd (Landslide) 5/7/26 1400 71.6   4.2 62   9 57.8   0.5 4.2   0.6 SSW | 192 8.7   0.2 0.00 0.00 72.3   4.4 51.8   3.3
Newman Knights Valley 5/7/26 1415 70.7   3.0 72   4 61.3   1.2 6.2   0.9 SW | 230 10.4   1.8 0.00 0.00 71.3   3.1 51.8   2.7
Jimtown-North (Piccolo Ranch 15) 5/7/26 1415 73.2   2.5 59   9 57.9   2.2 2.6   0.8 SSW | 208 7.5   1.3 0.00 0.00 74.4   1.9 52.1   2.6
Peterson (Ranch 09) 5/7/26 1415 72.0   2.8 56   7 55.6   0.9 4.1   0.4 S | 178 7.5   0.4 0.00 0.00 72.5   2.7 51.5   2.6
Cloverdale-SE (Ranch 38) 5/7/26 1415 74.6   1.0 60   8 59.9   2.9 8.3   2.0 SSE | 158 15.9   3.4 0.00 0.00 75.6   2.0 50.9   2.8
Geyserville-East (Ranch 40) 5/7/26 1415 71.5   3.1 67   10 59.9   1.9 7.8   3.1 S | 181 13.4   3.6 0.00 0.00 72.8   3.7 50.4   1.8
N Chalk Hill Rd (Ranch 63) 5/7/26 1415 71.4   4.0 61   9 57.2   0.9 4.5   1.5 SSE | 149 7.9   0.2 0.00 0.00 71.7   4.3 49.6   4.0
Cloverdale-East (Ranch 83) 5/7/26 1415 77.4   1.1 - - 4.7   1.4 S | 170 12.0   3.5 0.00 0.00 78.0   1.1 52.4   2.9
Crazy Creek Ranch 5/7/26 1415 72.9   2.5 68   7 61.6   0.9 2.8   0.3 ESE | 122 6.9   0.7 0.00 0.00 73.2   2.2 52.4   2.8
Lytton East (Hill 5) 5/7/26 1415 71.1   3.6 63   10 57.8   1.4 6.4   1.6 SSE | 153 11.3   2.6 0.00 0.00 72.0   3.5 51.0   2.8
Lytton East (Shop Hill Bottom) 5/7/26 1415 71.6   7.0 61   14 57.3   0.5 5.8   1.9 SE | 143 10.0   1.2 0.00 0.00 72.1   7.2 51.2   2.9
Lytton West Hill (23PS) 5/7/26 1415 71.8   3.9 60   11 57.4   2.1 6.4   2.7 SSE | 168 11.4   4.9 0.00 0.00 73.0   4.1 51.4   3.2
Lytton West Lower (Lew 6) 5/7/26 1415 72.5   3.3 59   8 57.6   1.1 6.1   3.0 SSE | 160 10.4   3.0 0.00 0.00 73.0   3.7 51.3   2.9
Whitton Ranch (201e) 5/7/26 1415 74.2   2.5 57   6 57.8   0.9 3.4   0.6 SSE | 151 7.5   1.9 0.00 0.00 74.6   2.4 51.9   2.7
Upper Dry Creek Valley 5/7/26 1415 74.7   3.6 56   13 57.9   4.2 6.1   4.1 SE | 142 12.3   6.7 0.00 0.00 75.3   4.0 51.9   3.2
Big River 5/7/26 1415 71.1   3.2 65   9 58.9   1.0 4.0   0.7 SSE | 161 8.6   0.5 0.00 0.00 72.0   3.0 51.4   3.0
Max     77.4 72 61.6 8.3 - 15.9 0.00 0.00 78.5 52.9
Avg     73.0 60 58.3 5.1 - 10.0 0.00 - - -
Min     70.7 52 55.6 2.6 - 6.8 0.00 0.00 71.3 44.8